SAS50F ESSA-ESNQ
Flight info
| Callsign | SAS50F |
|---|---|
| Flight time | 1h 20m |
| Altitude | 37000 |
| Route | RESNA DCT OSK/N0449F380 DCT OSKIR DCT VAGAS |
| Aircraft | A320/M-SDE3FGHIJ1RWXYZ/ALB1 |
Departure
| Time | 2026-05-07 10:40 |
|---|---|
| Airport | Stockholm-Arlanda Airport (ESSA) |
Arrival
| Time | 2026-05-07 12:01 |
|---|---|
| Airport | Kiruna Airport (ESNQ) |
| Time | Latitude | Longitude | Altitude | Speed | Heading |
|---|---|---|---|---|---|
| 2026-05-07 10:11 | 59.65366 | 17.92952 | 112 ft | 0 kts | 139° |
| 2026-05-07 10:32 | 59.65369 | 17.92947 | 112 ft | 3 kts | 139° |
| 2026-05-07 10:32 | 59.65388 | 17.92915 | 111 ft | 2 kts | 139° |
| 2026-05-07 10:32 | 59.65398 | 17.92889 | 109 ft | 4 kts | 78° |
| 2026-05-07 10:32 | 59.65391 | 17.92844 | 109 ft | 4 kts | 70° |
| 2026-05-07 10:33 | 59.65389 | 17.92834 | 110 ft | 0 kts | 70° |
| 2026-05-07 10:36 | 59.65390 | 17.92841 | 109 ft | 3 kts | 70° |
| 2026-05-07 10:36 | 59.65407 | 17.92922 | 110 ft | 8 kts | 57° |
| 2026-05-07 10:36 | 59.65456 | 17.92935 | 112 ft | 8 kts | 323° |
| 2026-05-07 10:37 | 59.65456 | 17.92805 | 110 ft | 12 kts | 250° |
| 2026-05-07 10:37 | 59.65435 | 17.92646 | 110 ft | 13 kts | 289° |
| 2026-05-07 10:37 | 59.65531 | 17.92531 | 105 ft | 19 kts | 339° |
| 2026-05-07 10:37 | 59.65668 | 17.92460 | 102 ft | 21 kts | 345° |
| 2026-05-07 10:38 | 59.65786 | 17.92432 | 105 ft | 17 kts | 9° |
| 2026-05-07 10:38 | 59.65880 | 17.92456 | 107 ft | 10 kts | 352° |
| 2026-05-07 10:38 | 59.65911 | 17.92362 | 110 ft | 7 kts | 282° |
| 2026-05-07 10:38 | 59.65915 | 17.92330 | 110 ft | 0 kts | 282° |
| 2026-05-07 10:39 | 59.65921 | 17.92273 | 111 ft | 8 kts | 282° |
| 2026-05-07 10:39 | 59.65926 | 17.92136 | 115 ft | 11 kts | 243° |
| 2026-05-07 10:40 | 59.65849 | 17.92090 | 114 ft | 18 kts | 190° |
| 2026-05-07 10:40 | 59.65425 | 17.91941 | 107 ft | 105 kts | 191° |
| 2026-05-07 10:40 | 59.64483 | 17.91596 | 247 ft | 155 kts | 190° |
| 2026-05-07 10:40 | 59.63407 | 17.91231 | 1079 ft | 160 kts | 190° |
| 2026-05-07 10:41 | 59.62302 | 17.90832 | 1763 ft | 165 kts | 190° |
| 2026-05-07 10:41 | 59.61200 | 17.89856 | 2057 ft | 189 kts | 225° |
| 2026-05-07 10:41 | 59.60437 | 17.87570 | 2375 ft | 211 kts | 239° |
| 2026-05-07 10:41 | 59.59674 | 17.84977 | 2874 ft | 223 kts | 238° |
| 2026-05-07 10:42 | 59.58888 | 17.82333 | 3726 ft | 224 kts | 239° |
| 2026-05-07 10:42 | 59.58110 | 17.79589 | 4375 ft | 239 kts | 242° |
| 2026-05-07 10:42 | 59.57318 | 17.76554 | 4987 ft | 255 kts | 243° |
| 2026-05-07 10:42 | 59.56738 | 17.73234 | 5865 ft | 260 kts | 263° |
| 2026-05-07 10:43 | 59.56743 | 17.69645 | 6751 ft | 263 kts | 272° |
| 2026-05-07 10:43 | 59.56860 | 17.66032 | 7638 ft | 265 kts | 280° |
| 2026-05-07 10:43 | 59.57633 | 17.62739 | 8508 ft | 270 kts | 309° |
| 2026-05-07 10:43 | 59.59146 | 17.60534 | 9386 ft | 277 kts | 336° |
| 2026-05-07 10:44 | 59.61061 | 17.59957 | 10203 ft | 286 kts | 3° |
| 2026-05-07 10:44 | 59.63072 | 17.60825 | 10588 ft | 308 kts | 11° |
| 2026-05-07 10:44 | 59.65210 | 17.61973 | 10878 ft | 327 kts | 12° |
| 2026-05-07 10:44 | 59.67421 | 17.63221 | 11483 ft | 333 kts | 12° |
| 2026-05-07 10:45 | 59.69664 | 17.64500 | 12152 ft | 338 kts | 12° |
| 2026-05-07 10:45 | 59.71943 | 17.65792 | 12837 ft | 343 kts | 11° |
| 2026-05-07 10:45 | 59.74262 | 17.66973 | 13509 ft | 344 kts | 4° |
| 2026-05-07 10:45 | 59.76612 | 17.67619 | 14138 ft | 348 kts | 2° |
| 2026-05-07 10:46 | 59.79024 | 17.68228 | 14737 ft | 351 kts | 1° |
| 2026-05-07 10:46 | 59.81463 | 17.68822 | 15337 ft | 355 kts | 1° |
| 2026-05-07 10:46 | 59.83924 | 17.69415 | 15924 ft | 358 kts | 1° |
| 2026-05-07 10:46 | 59.86413 | 17.70018 | 16531 ft | 362 kts | 1° |
| 2026-05-07 10:47 | 59.88930 | 17.70638 | 17106 ft | 367 kts | 1° |
| 2026-05-07 10:47 | 59.91475 | 17.71278 | 17685 ft | 371 kts | 1° |
| 2026-05-07 10:47 | 59.94047 | 17.71936 | 18264 ft | 375 kts | 1° |
| 2026-05-07 10:47 | 59.96645 | 17.72603 | 18785 ft | 378 kts | 1° |
| 2026-05-07 10:48 | 59.99271 | 17.73275 | 19324 ft | 382 kts | 1° |
| 2026-05-07 10:48 | 60.01918 | 17.73945 | 19881 ft | 385 kts | 1° |
| 2026-05-07 10:48 | 60.04587 | 17.74620 | 20449 ft | 388 kts | 1° |
| 2026-05-07 10:48 | 60.07280 | 17.75301 | 20987 ft | 392 kts | 0° |
| 2026-05-07 10:49 | 60.09075 | 17.75758 | 21335 ft | 394 kts | 0° |
| 2026-05-07 10:49 | 60.11805 | 17.76458 | 21860 ft | 397 kts | 0° |
| 2026-05-07 10:49 | 60.14559 | 17.77166 | 22426 ft | 401 kts | 0° |
| 2026-05-07 10:49 | 60.17334 | 17.77877 | 22937 ft | 404 kts | 0° |
| 2026-05-07 10:50 | 60.20135 | 17.78592 | 23450 ft | 407 kts | 360° |
| 2026-05-07 10:50 | 60.22958 | 17.79313 | 23901 ft | 411 kts | 360° |
| 2026-05-07 10:50 | 60.25804 | 17.80045 | 24308 ft | 414 kts | 360° |
| 2026-05-07 10:50 | 60.28673 | 17.80785 | 24701 ft | 417 kts | 360° |
| 2026-05-07 10:51 | 60.31561 | 17.81532 | 25092 ft | 420 kts | 360° |
| 2026-05-07 10:51 | 60.34470 | 17.82284 | 25482 ft | 423 kts | 360° |
| 2026-05-07 10:51 | 60.37400 | 17.83041 | 25864 ft | 426 kts | 360° |
| 2026-05-07 10:51 | 60.40353 | 17.83805 | 26247 ft | 429 kts | 360° |
| 2026-05-07 10:52 | 60.43323 | 17.84579 | 26620 ft | 432 kts | 360° |
| 2026-05-07 10:52 | 60.46316 | 17.85363 | 26990 ft | 435 kts | 0° |
| 2026-05-07 10:52 | 60.49330 | 17.86156 | 27341 ft | 438 kts | 360° |
| 2026-05-07 10:52 | 60.52361 | 17.86951 | 27690 ft | 441 kts | 360° |
| 2026-05-07 10:53 | 60.55416 | 17.87749 | 28072 ft | 444 kts | 360° |
| 2026-05-07 10:53 | 60.58484 | 17.88551 | 28482 ft | 445 kts | 360° |
| 2026-05-07 10:53 | 60.61560 | 17.89360 | 28854 ft | 447 kts | 360° |
| 2026-05-07 10:53 | 60.64656 | 17.90178 | 29201 ft | 450 kts | 360° |
| 2026-05-07 10:54 | 60.67769 | 17.90997 | 29546 ft | 453 kts | 360° |
| 2026-05-07 10:54 | 60.70904 | 17.91822 | 29882 ft | 455 kts | 360° |
| 2026-05-07 10:54 | 60.74057 | 17.92656 | 30250 ft | 459 kts | 360° |
| 2026-05-07 10:54 | 60.77239 | 17.93496 | 30480 ft | 463 kts | 360° |
| 2026-05-07 10:55 | 60.80438 | 17.94345 | 30737 ft | 465 kts | 0° |
| 2026-05-07 10:55 | 60.83660 | 17.95212 | 31017 ft | 468 kts | 0° |
| 2026-05-07 10:55 | 60.86880 | 17.96087 | 31413 ft | 467 kts | 0° |
| 2026-05-07 10:55 | 60.90098 | 17.96958 | 31807 ft | 466 kts | 0° |
| 2026-05-07 10:56 | 60.93314 | 17.97823 | 32199 ft | 466 kts | 1° |
| 2026-05-07 10:56 | 60.96530 | 17.98683 | 32591 ft | 466 kts | 1° |
| 2026-05-07 10:56 | 60.99741 | 17.99544 | 32979 ft | 465 kts | 1° |
| 2026-05-07 10:56 | 61.02951 | 18.00405 | 33419 ft | 465 kts | 1° |
| 2026-05-07 10:57 | 61.06164 | 18.01268 | 33821 ft | 465 kts | 1° |
| 2026-05-07 10:57 | 61.09366 | 18.02137 | 34206 ft | 464 kts | 1° |
| 2026-05-07 10:57 | 61.12565 | 18.03007 | 34523 ft | 464 kts | 1° |
| 2026-05-07 10:57 | 61.15765 | 18.03875 | 34823 ft | 464 kts | 1° |
| 2026-05-07 10:58 | 61.18959 | 18.04746 | 35116 ft | 464 kts | 2° |
| 2026-05-07 10:58 | 61.22158 | 18.05619 | 35400 ft | 463 kts | 2° |
| 2026-05-07 10:58 | 61.25356 | 18.06492 | 35674 ft | 463 kts | 2° |
| 2026-05-07 10:58 | 61.28551 | 18.07373 | 35943 ft | 463 kts | 2° |
| 2026-05-07 10:59 | 61.31751 | 18.08263 | 36206 ft | 463 kts | 2° |
| 2026-05-07 10:59 | 61.34948 | 18.09150 | 36477 ft | 464 kts | 2° |
| 2026-05-07 10:59 | 61.38147 | 18.10033 | 36715 ft | 464 kts | 2° |
| 2026-05-07 10:59 | 61.41346 | 18.10910 | 36953 ft | 464 kts | 2° |
| 2026-05-07 11:00 | 61.44556 | 18.11790 | 37070 ft | 466 kts | 2° |
| 2026-05-07 11:00 | 61.47727 | 18.12663 | 37097 ft | 467 kts | 2° |
| 2026-05-07 11:00 | 61.54211 | 18.14466 | 37095 ft | 467 kts | 2° |
| 2026-05-07 11:01 | 61.60608 | 18.16268 | 37095 ft | 467 kts | 2° |
| 2026-05-07 11:01 | 61.67055 | 18.18084 | 37092 ft | 467 kts | 2° |
| 2026-05-07 11:02 | 61.73507 | 18.19899 | 37096 ft | 468 kts | 2° |
| 2026-05-07 11:02 | 61.79965 | 18.21725 | 37101 ft | 468 kts | 2° |
| 2026-05-07 11:03 | 61.86426 | 18.23578 | 37105 ft | 469 kts | 2° |
| 2026-05-07 11:03 | 61.92892 | 18.25430 | 37133 ft | 469 kts | 2° |
| 2026-05-07 11:04 | 61.99361 | 18.27283 | 37124 ft | 469 kts | 3° |
| 2026-05-07 11:04 | 62.05827 | 18.29138 | 37137 ft | 469 kts | 3° |
| 2026-05-07 11:05 | 62.12288 | 18.31003 | 37126 ft | 468 kts | 3° |
| 2026-05-07 11:05 | 62.18739 | 18.32889 | 37119 ft | 468 kts | 3° |
| 2026-05-07 11:06 | 62.25182 | 18.34776 | 37117 ft | 467 kts | 3° |
| 2026-05-07 11:06 | 62.31618 | 18.36658 | 37109 ft | 467 kts | 3° |
| 2026-05-07 11:07 | 62.38010 | 18.38530 | 37107 ft | 467 kts | 3° |
| 2026-05-07 11:07 | 62.44448 | 18.40438 | 37106 ft | 467 kts | 3° |
| 2026-05-07 11:08 | 62.50886 | 18.42363 | 37104 ft | 467 kts | 3° |
| 2026-05-07 11:08 | 62.57324 | 18.44285 | 37125 ft | 467 kts | 3° |
| 2026-05-07 11:09 | 62.63766 | 18.46203 | 37111 ft | 467 kts | 3° |
| 2026-05-07 11:09 | 62.70209 | 18.48149 | 37106 ft | 467 kts | 3° |
| 2026-05-07 11:10 | 62.76649 | 18.50102 | 37103 ft | 467 kts | 3° |
| 2026-05-07 11:10 | 62.83089 | 18.52056 | 37115 ft | 467 kts | 3° |
| 2026-05-07 11:11 | 62.89529 | 18.54015 | 37112 ft | 467 kts | 4° |
| 2026-05-07 11:11 | 62.95969 | 18.55982 | 37103 ft | 467 kts | 4° |
| 2026-05-07 11:12 | 63.02413 | 18.57964 | 37084 ft | 468 kts | 4° |
| 2026-05-07 11:12 | 63.08857 | 18.59955 | 37083 ft | 468 kts | 4° |
| 2026-05-07 11:13 | 63.15302 | 18.61951 | 37096 ft | 468 kts | 4° |
| 2026-05-07 11:13 | 63.21749 | 18.63955 | 37093 ft | 468 kts | 4° |
| 2026-05-07 11:14 | 63.28201 | 18.65975 | 37087 ft | 468 kts | 4° |
| 2026-05-07 11:14 | 63.34650 | 18.68014 | 37085 ft | 468 kts | 4° |
| 2026-05-07 11:15 | 63.41097 | 18.70078 | 37077 ft | 468 kts | 4° |
| 2026-05-07 11:15 | 63.47542 | 18.72122 | 37079 ft | 468 kts | 4° |
| 2026-05-07 11:16 | 63.53984 | 18.74160 | 37085 ft | 467 kts | 4° |
| 2026-05-07 11:16 | 63.60416 | 18.76226 | 37093 ft | 467 kts | 4° |
| 2026-05-07 11:17 | 63.66797 | 18.78280 | 37083 ft | 466 kts | 4° |
| 2026-05-07 11:17 | 63.73218 | 18.80361 | 37070 ft | 466 kts | 4° |
| 2026-05-07 11:18 | 63.79633 | 18.82447 | 37073 ft | 466 kts | 4° |
| 2026-05-07 11:18 | 63.86049 | 18.84530 | 37067 ft | 466 kts | 4° |
| 2026-05-07 11:19 | 63.92464 | 18.86630 | 37064 ft | 466 kts | 4° |
| 2026-05-07 11:19 | 63.98880 | 18.88742 | 37063 ft | 466 kts | 4° |
| 2026-05-07 11:20 | 64.05294 | 18.90870 | 37061 ft | 466 kts | 4° |
| 2026-05-07 11:20 | 64.11712 | 18.93016 | 37079 ft | 466 kts | 5° |
| 2026-05-07 11:21 | 64.18126 | 18.95157 | 37068 ft | 466 kts | 5° |
| 2026-05-07 11:21 | 64.24535 | 18.97300 | 37062 ft | 465 kts | 5° |
| 2026-05-07 11:22 | 64.30935 | 18.99454 | 37060 ft | 465 kts | 5° |
| 2026-05-07 11:22 | 64.37336 | 19.01625 | 37058 ft | 465 kts | 5° |
| 2026-05-07 11:23 | 64.43738 | 19.03809 | 37068 ft | 465 kts | 5° |
| 2026-05-07 11:23 | 64.50096 | 19.05970 | 37059 ft | 465 kts | 5° |
| 2026-05-07 11:24 | 64.56499 | 19.08168 | 37051 ft | 465 kts | 5° |
| 2026-05-07 11:24 | 64.62905 | 19.10382 | 37050 ft | 465 kts | 5° |
| 2026-05-07 11:25 | 64.69306 | 19.12602 | 37052 ft | 465 kts | 5° |
| 2026-05-07 11:25 | 64.75717 | 19.14830 | 37063 ft | 466 kts | 5° |
| 2026-05-07 11:26 | 64.82127 | 19.17083 | 37055 ft | 466 kts | 5° |
| 2026-05-07 11:26 | 64.88544 | 19.19349 | 37054 ft | 466 kts | 5° |
| 2026-05-07 11:27 | 64.94960 | 19.21610 | 37050 ft | 466 kts | 5° |
| 2026-05-07 11:27 | 65.01369 | 19.23891 | 37065 ft | 466 kts | 5° |
| 2026-05-07 11:28 | 65.07779 | 19.26184 | 37071 ft | 466 kts | 6° |
| 2026-05-07 11:28 | 65.14183 | 19.28473 | 37054 ft | 465 kts | 6° |
| 2026-05-07 11:29 | 65.20569 | 19.30790 | 37047 ft | 464 kts | 6° |
| 2026-05-07 11:29 | 65.26952 | 19.33101 | 37037 ft | 464 kts | 6° |
| 2026-05-07 11:30 | 65.33329 | 19.35407 | 37058 ft | 464 kts | 6° |
| 2026-05-07 11:30 | 65.39704 | 19.37742 | 37028 ft | 463 kts | 6° |
| 2026-05-07 11:31 | 65.46079 | 19.40083 | 37029 ft | 463 kts | 6° |
| 2026-05-07 11:31 | 65.52450 | 19.42456 | 37013 ft | 463 kts | 6° |
| 2026-05-07 11:32 | 65.61962 | 19.46008 | 37021 ft | 463 kts | 6° |
| 2026-05-07 11:33 | 65.68379 | 19.48401 | 37037 ft | 464 kts | 6° |
| 2026-05-07 11:33 | 65.74713 | 19.50765 | 37031 ft | 463 kts | 6° |
| 2026-05-07 11:34 | 65.81087 | 19.53178 | 37029 ft | 463 kts | 6° |
| 2026-05-07 11:34 | 65.87457 | 19.55600 | 37030 ft | 463 kts | 6° |
| 2026-05-07 11:34 | 65.90645 | 19.56811 | 36694 ft | 465 kts | 6° |
| 2026-05-07 11:35 | 65.93882 | 19.58036 | 35607 ft | 475 kts | 6° |
| 2026-05-07 11:35 | 65.97134 | 19.59277 | 34621 ft | 472 kts | 6° |
| 2026-05-07 11:35 | 66.00360 | 19.60521 | 33739 ft | 466 kts | 6° |
| 2026-05-07 11:35 | 66.03536 | 19.61754 | 32864 ft | 458 kts | 6° |
| 2026-05-07 11:36 | 66.06642 | 19.62963 | 32237 ft | 444 kts | 6° |
| 2026-05-07 11:36 | 66.09651 | 19.64140 | 31873 ft | 435 kts | 6° |
| 2026-05-07 11:36 | 66.12630 | 19.65300 | 31394 ft | 432 kts | 6° |
| 2026-05-07 11:36 | 66.15589 | 19.66451 | 30935 ft | 429 kts | 6° |
| 2026-05-07 11:37 | 66.18525 | 19.67590 | 30484 ft | 426 kts | 6° |
| 2026-05-07 11:37 | 66.21442 | 19.68724 | 30037 ft | 423 kts | 6° |
| 2026-05-07 11:37 | 66.23358 | 19.69469 | 29678 ft | 420 kts | 6° |
| 2026-05-07 11:37 | 66.26223 | 19.70585 | 29259 ft | 414 kts | 6° |
| 2026-05-07 11:38 | 66.29048 | 19.71693 | 28841 ft | 408 kts | 7° |
| 2026-05-07 11:38 | 66.31839 | 19.72792 | 28428 ft | 404 kts | 7° |
| 2026-05-07 11:38 | 66.34623 | 19.73888 | 27814 ft | 406 kts | 7° |
| 2026-05-07 11:38 | 66.37407 | 19.74980 | 27307 ft | 404 kts | 7° |
| 2026-05-07 11:39 | 66.40167 | 19.76071 | 26847 ft | 400 kts | 7° |
| 2026-05-07 11:39 | 66.42905 | 19.77164 | 26413 ft | 397 kts | 8° |
| 2026-05-07 11:39 | 66.45619 | 19.78253 | 26000 ft | 393 kts | 8° |
| 2026-05-07 11:39 | 66.48306 | 19.79329 | 25594 ft | 390 kts | 8° |
| 2026-05-07 11:40 | 66.50978 | 19.80397 | 25214 ft | 387 kts | 8° |
| 2026-05-07 11:40 | 66.53624 | 19.81458 | 24848 ft | 384 kts | 8° |
| 2026-05-07 11:40 | 66.56252 | 19.82516 | 24482 ft | 381 kts | 8° |
| 2026-05-07 11:40 | 66.58860 | 19.83567 | 24109 ft | 378 kts | 8° |
| 2026-05-07 11:41 | 66.61452 | 19.84612 | 23734 ft | 376 kts | 8° |
| 2026-05-07 11:41 | 66.64022 | 19.85647 | 23318 ft | 373 kts | 8° |
| 2026-05-07 11:41 | 66.66570 | 19.86677 | 22852 ft | 370 kts | 9° |
| 2026-05-07 11:41 | 66.69104 | 19.87704 | 22396 ft | 367 kts | 9° |
| 2026-05-07 11:42 | 66.71611 | 19.88725 | 21940 ft | 364 kts | 9° |
| 2026-05-07 11:42 | 66.74104 | 19.89748 | 21472 ft | 362 kts | 9° |
| 2026-05-07 11:42 | 66.76580 | 19.90768 | 20994 ft | 359 kts | 9° |
| 2026-05-07 11:42 | 66.79039 | 19.91778 | 20530 ft | 357 kts | 9° |
| 2026-05-07 11:43 | 66.81479 | 19.92778 | 20080 ft | 354 kts | 8° |
| 2026-05-07 11:43 | 66.83902 | 19.93771 | 19628 ft | 351 kts | 8° |
| 2026-05-07 11:43 | 66.86308 | 19.94759 | 19178 ft | 349 kts | 8° |
| 2026-05-07 11:43 | 66.88699 | 19.95751 | 18754 ft | 346 kts | 8° |
| 2026-05-07 11:44 | 66.91066 | 19.96736 | 18321 ft | 344 kts | 8° |
| 2026-05-07 11:44 | 66.93424 | 19.97721 | 17840 ft | 342 kts | 8° |
| 2026-05-07 11:44 | 66.95764 | 19.98693 | 17373 ft | 340 kts | 8° |
| 2026-05-07 11:44 | 66.98087 | 19.99653 | 17085 ft | 338 kts | 8° |
| 2026-05-07 11:45 | 67.00405 | 20.00612 | 16808 ft | 338 kts | 8° |
| 2026-05-07 11:45 | 67.02722 | 20.01575 | 16531 ft | 336 kts | 8° |
| 2026-05-07 11:45 | 67.05023 | 20.02535 | 16266 ft | 334 kts | 8° |
| 2026-05-07 11:45 | 67.07285 | 20.03484 | 15988 ft | 333 kts | 8° |
| 2026-05-07 11:46 | 67.09565 | 20.04440 | 15715 ft | 331 kts | 8° |
| 2026-05-07 11:46 | 67.11834 | 20.05391 | 15449 ft | 330 kts | 8° |
| 2026-05-07 11:46 | 67.14093 | 20.06343 | 15181 ft | 328 kts | 8° |
| 2026-05-07 11:46 | 67.16342 | 20.07298 | 14908 ft | 327 kts | 8° |
| 2026-05-07 11:47 | 67.18580 | 20.08253 | 14646 ft | 325 kts | 8° |
| 2026-05-07 11:47 | 67.20805 | 20.09202 | 14401 ft | 324 kts | 8° |
| 2026-05-07 11:47 | 67.23022 | 20.10145 | 14145 ft | 322 kts | 8° |
| 2026-05-07 11:47 | 67.25230 | 20.11086 | 13891 ft | 321 kts | 8° |
| 2026-05-07 11:48 | 67.27429 | 20.12021 | 13616 ft | 319 kts | 8° |
| 2026-05-07 11:48 | 67.29621 | 20.12953 | 13332 ft | 319 kts | 8° |
| 2026-05-07 11:48 | 67.31810 | 20.13887 | 13052 ft | 318 kts | 8° |
| 2026-05-07 11:48 | 67.33986 | 20.14836 | 12782 ft | 317 kts | 9° |
| 2026-05-07 11:49 | 67.36093 | 20.16502 | 12504 ft | 317 kts | 21° |
| 2026-05-07 11:49 | 67.38119 | 20.18759 | 12233 ft | 316 kts | 21° |
| 2026-05-07 11:49 | 67.40139 | 20.21011 | 11962 ft | 315 kts | 21° |
| 2026-05-07 11:49 | 67.42151 | 20.23253 | 11694 ft | 314 kts | 21° |
| 2026-05-07 11:50 | 67.44152 | 20.25490 | 11423 ft | 312 kts | 21° |
| 2026-05-07 11:50 | 67.46144 | 20.27727 | 11157 ft | 311 kts | 21° |
| 2026-05-07 11:50 | 67.48126 | 20.29957 | 10903 ft | 310 kts | 21° |
| 2026-05-07 11:50 | 67.50100 | 20.32185 | 10632 ft | 308 kts | 21° |
| 2026-05-07 11:51 | 67.52066 | 20.34407 | 10372 ft | 307 kts | 21° |
| 2026-05-07 11:51 | 67.54022 | 20.36621 | 10109 ft | 306 kts | 21° |
| 2026-05-07 11:51 | 67.55973 | 20.38829 | 9924 ft | 305 kts | 21° |
| 2026-05-07 11:51 | 67.57912 | 20.41022 | 9768 ft | 299 kts | 21° |
| 2026-05-07 11:52 | 67.59791 | 20.43154 | 9634 ft | 289 kts | 21° |
| 2026-05-07 11:52 | 67.61590 | 20.45199 | 9503 ft | 283 kts | 21° |
| 2026-05-07 11:52 | 67.63392 | 20.47252 | 9347 ft | 282 kts | 21° |
| 2026-05-07 11:52 | 67.65189 | 20.49300 | 9207 ft | 281 kts | 21° |
| 2026-05-07 11:53 | 67.66982 | 20.51345 | 9069 ft | 280 kts | 21° |
| 2026-05-07 11:53 | 67.68768 | 20.53388 | 8924 ft | 280 kts | 21° |
| 2026-05-07 11:53 | 67.70550 | 20.55435 | 8783 ft | 279 kts | 21° |
| 2026-05-07 11:53 | 67.72329 | 20.57491 | 8644 ft | 279 kts | 21° |
| 2026-05-07 11:54 | 67.74100 | 20.59540 | 8504 ft | 278 kts | 21° |
| 2026-05-07 11:54 | 67.75870 | 20.61585 | 8244 ft | 277 kts | 22° |
| 2026-05-07 11:54 | 67.77630 | 20.63610 | 7981 ft | 275 kts | 21° |
| 2026-05-07 11:54 | 67.79403 | 20.65457 | 7641 ft | 273 kts | 14° |
| 2026-05-07 11:55 | 67.81239 | 20.66662 | 7295 ft | 271 kts | 12° |
| 2026-05-07 11:55 | 67.83072 | 20.67849 | 6952 ft | 271 kts | 12° |
| 2026-05-07 11:55 | 67.84885 | 20.69034 | 6601 ft | 270 kts | 12° |
| 2026-05-07 11:55 | 67.86709 | 20.70228 | 6242 ft | 270 kts | 12° |
| 2026-05-07 11:56 | 67.88516 | 20.71411 | 6040 ft | 263 kts | 12° |
| 2026-05-07 11:56 | 67.90252 | 20.72528 | 5956 ft | 251 kts | 9° |
| 2026-05-07 11:56 | 67.91943 | 20.72441 | 5850 ft | 239 kts | 343° |
| 2026-05-07 11:56 | 67.93387 | 20.70542 | 5680 ft | 229 kts | 320° |
| 2026-05-07 11:57 | 67.94396 | 20.67258 | 5261 ft | 233 kts | 296° |
| 2026-05-07 11:57 | 67.95003 | 20.63248 | 4946 ft | 234 kts | 286° |
| 2026-05-07 11:57 | 67.95032 | 20.58976 | 4520 ft | 232 kts | 256° |
| 2026-05-07 11:57 | 67.94257 | 20.55293 | 4116 ft | 229 kts | 224° |
| 2026-05-07 11:58 | 67.93012 | 20.52876 | 3874 ft | 217 kts | 216° |
| 2026-05-07 11:58 | 67.91789 | 20.50699 | 3586 ft | 207 kts | 215° |
| 2026-05-07 11:58 | 67.90626 | 20.48626 | 3349 ft | 196 kts | 216° |
| 2026-05-07 11:58 | 67.89513 | 20.46643 | 3044 ft | 188 kts | 216° |
| 2026-05-07 11:59 | 67.88465 | 20.44782 | 2782 ft | 175 kts | 216° |
| 2026-05-07 11:59 | 67.87489 | 20.43049 | 2532 ft | 162 kts | 216° |
| 2026-05-07 11:59 | 67.86599 | 20.41469 | 2294 ft | 149 kts | 217° |
| 2026-05-07 11:59 | 67.85753 | 20.39969 | 2073 ft | 143 kts | 216° |
| 2026-05-07 12:00 | 67.84935 | 20.38519 | 1892 ft | 140 kts | 217° |
| 2026-05-07 12:00 | 67.84144 | 20.37101 | 1706 ft | 138 kts | 217° |
| 2026-05-07 12:00 | 67.83347 | 20.35693 | 1527 ft | 137 kts | 215° |
| 2026-05-07 12:00 | 67.82586 | 20.34366 | 1458 ft | 113 kts | 213° |
| 2026-05-07 12:01 | 67.82186 | 20.33664 | 1471 ft | 35 kts | 213° |
| 2026-05-07 12:01 | 67.82058 | 20.33398 | 1471 ft | 14 kts | 250° |
| 2026-05-07 12:01 | 67.82083 | 20.33209 | 1475 ft | 9 kts | 303° |
| 2026-05-07 12:01 | 67.82129 | 20.33073 | 1474 ft | 10 kts | 345° |
| 2026-05-07 12:02 | 67.82207 | 20.33155 | 1470 ft | 16 kts | 35° |
| 2026-05-07 12:02 | 67.82303 | 20.33325 | 1465 ft | 18 kts | 35° |
| 2026-05-07 12:02 | 67.82387 | 20.33479 | 1459 ft | 13 kts | 34° |
| 2026-05-07 12:02 | 67.82444 | 20.33502 | 1460 ft | 6 kts | 332° |
| 2026-05-07 12:03 | 67.82480 | 20.33470 | 1462 ft | 6 kts | 8° |
| 2026-05-07 12:03 | 67.82501 | 20.33492 | 1462 ft | 3 kts | 24° |
| 2026-05-07 12:03 | 67.82505 | 20.33497 | 1462 ft | 0 kts | 25° |